sensor_id;sensor_type;location;lat;lon;timestamp;P1;durP1;ratioP1;P2;durP2;ratioP2
9256;SDS011;4665;51.368;6.782;2022-12-10T00:00:50;29.43;;;17.83;;
9256;SDS011;4665;51.368;6.782;2022-12-10T00:03:16;27.70;;;18.43;;
9256;SDS011;4665;51.368;6.782;2022-12-10T00:05:42;27.97;;;18.10;;
9256;SDS011;4665;51.368;6.782;2022-12-10T00:08:07;29.53;;;18.27;;
9256;SDS011;4665;51.368;6.782;2022-12-10T00:10:33;31.77;;;17.87;;
9256;SDS011;4665;51.368;6.782;2022-12-10T00:12:58;26.87;;;17.50;;
9256;SDS011;4665;51.368;6.782;2022-12-10T00:15:23;28.93;;;17.97;;
9256;SDS011;4665;51.368;6.782;2022-12-10T00:17:49;26.73;;;17.83;;
9256;SDS011;4665;51.368;6.782;2022-12-10T00:20:14;25.03;;;16.17;;
9256;SDS011;4665;51.368;6.782;2022-12-10T00:22:40;31.33;;;19.80;;
9256;SDS011;4665;51.368;6.782;2022-12-10T00:25:05;31.20;;;20.70;;
9256;SDS011;4665;51.368;6.782;2022-12-10T00:27:31;29.27;;;18.50;;
9256;SDS011;4665;51.368;6.782;2022-12-10T00:29:56;26.30;;;18.60;;
9256;SDS011;4665;51.368;6.782;2022-12-10T00:32:22;27.57;;;17.97;;
9256;SDS011;4665;51.368;6.782;2022-12-10T00:34:47;26.70;;;17.23;;
9256;SDS011;4665;51.368;6.782;2022-12-10T00:37:13;33.97;;;20.37;;
9256;SDS011;4665;51.368;6.782;2022-12-10T00:39:38;31.77;;;18.70;;
9256;SDS011;4665;51.368;6.782;2022-12-10T00:42:04;26.97;;;18.50;;
9256;SDS011;4665;51.368;6.782;2022-12-10T00:44:29;30.63;;;20.33;;
9256;SDS011;4665;51.368;6.782;2022-12-10T00:46:55;29.47;;;19.47;;
9256;SDS011;4665;51.368;6.782;2022-12-10T00:49:20;29.67;;;18.67;;
9256;SDS011;4665;51.368;6.782;2022-12-10T00:51:48;24.80;;;16.20;;
9256;SDS011;4665;51.368;6.782;2022-12-10T00:54:13;28.33;;;18.23;;
9256;SDS011;4665;51.368;6.782;2022-12-10T00:56:39;28.00;;;18.57;;
9256;SDS011;4665;51.368;6.782;2022-12-10T00:59:04;28.70;;;19.57;;
9256;SDS011;4665;51.368;6.782;2022-12-10T01:01:32;29.77;;;18.93;;
9256;SDS011;4665;51.368;6.782;2022-12-10T01:04:09;30.00;;;19.27;;
9256;SDS011;4665;51.368;6.782;2022-12-10T01:06:40;32.10;;;20.07;;
9256;SDS011;4665;51.368;6.782;2022-12-10T01:09:06;30.27;;;20.20;;
9256;SDS011;4665;51.368;6.782;2022-12-10T01:11:35;29.00;;;19.60;;
9256;SDS011;4665;51.368;6.782;2022-12-10T01:14:03;27.40;;;18.83;;
9256;SDS011;4665;51.368;6.782;2022-12-10T01:16:29;27.37;;;19.00;;
9256;SDS011;4665;51.368;6.782;2022-12-10T01:18:56;30.47;;;18.40;;
9256;SDS011;4665;51.368;6.782;2022-12-10T01:21:23;32.57;;;20.77;;
9256;SDS011;4665;51.368;6.782;2022-12-10T01:23:50;31.33;;;19.57;;
9256;SDS011;4665;51.368;6.782;2022-12-10T01:26:19;32.53;;;20.23;;
9256;SDS011;4665;51.368;6.782;2022-12-10T01:28:47;26.93;;;17.50;;
9256;SDS011;4665;51.368;6.782;2022-12-10T01:31:14;26.67;;;17.67;;
9256;SDS011;4665;51.368;6.782;2022-12-10T01:33:41;29.10;;;17.40;;
9256;SDS011;4665;51.368;6.782;2022-12-10T01:36:15;33.60;;;20.10;;
9256;SDS011;4665;51.368;6.782;2022-12-10T01:38:42;33.00;;;19.77;;
9256;SDS011;4665;51.368;6.782;2022-12-10T01:41:13;31.50;;;19.53;;
9256;SDS011;4665;51.368;6.782;2022-12-10T01:43:49;30.97;;;19.43;;
9256;SDS011;4665;51.368;6.782;2022-12-10T01:46:14;30.57;;;18.87;;
9256;SDS011;4665;51.368;6.782;2022-12-10T01:48:40;29.77;;;18.80;;
9256;SDS011;4665;51.368;6.782;2022-12-10T01:51:06;30.63;;;20.13;;
9256;SDS011;4665;51.368;6.782;2022-12-10T01:53:32;33.77;;;19.90;;
9256;SDS011;4665;51.368;6.782;2022-12-10T01:55:58;32.17;;;20.97;;
9256;SDS011;4665;51.368;6.782;2022-12-10T01:58:24;32.33;;;20.17;;
9256;SDS011;4665;51.368;6.782;2022-12-10T02:01:03;34.40;;;20.50;;
9256;SDS011;4665;51.368;6.782;2022-12-10T02:03:40;34.03;;;21.53;;
9256;SDS011;4665;51.368;6.782;2022-12-10T02:06:36;30.93;;;18.93;;
9256;SDS011;4665;51.368;6.782;2022-12-10T02:09:27;30.87;;;19.73;;
9256;SDS011;4665;51.368;6.782;2022-12-10T02:14:55;31.63;;;19.03;;
9256;SDS011;4665;51.368;6.782;2022-12-10T02:17:45;31.10;;;18.77;;
9256;SDS011;4665;51.368;6.782;2022-12-10T02:22:50;28.77;;;17.70;;
9256;SDS011;4665;51.368;6.782;2022-12-10T02:25:20;27.43;;;18.00;;
9256;SDS011;4665;51.368;6.782;2022-12-10T02:30:54;34.77;;;20.80;;
9256;SDS011;4665;51.368;6.782;2022-12-10T02:33:21;35.60;;;20.57;;
9256;SDS011;4665;51.368;6.782;2022-12-10T02:35:49;32.13;;;19.37;;
9256;SDS011;4665;51.368;6.782;2022-12-10T02:38:17;39.63;;;21.40;;
9256;SDS011;4665;51.368;6.782;2022-12-10T02:40:49;36.60;;;21.47;;
9256;SDS011;4665;51.368;6.782;2022-12-10T02:43:22;35.70;;;21.47;;
9256;SDS011;4665;51.368;6.782;2022-12-10T02:45:50;32.53;;;20.00;;
9256;SDS011;4665;51.368;6.782;2022-12-10T02:48:16;37.47;;;21.70;;
9256;SDS011;4665;51.368;6.782;2022-12-10T02:50:43;38.87;;;23.47;;
9256;SDS011;4665;51.368;6.782;2022-12-10T02:53:09;31.80;;;19.47;;
9256;SDS011;4665;51.368;6.782;2022-12-10T02:55:41;32.10;;;19.20;;
9256;SDS011;4665;51.368;6.782;2022-12-10T02:59:03;30.57;;;19.03;;
9256;SDS011;4665;51.368;6.782;2022-12-10T03:02:26;32.87;;;19.87;;
9256;SDS011;4665;51.368;6.782;2022-12-10T03:04:46;32.97;;;20.07;;
9256;SDS011;4665;51.368;6.782;2022-12-10T03:07:28;33.37;;;20.50;;
9256;SDS011;4665;51.368;6.782;2022-12-10T03:12:58;34.30;;;19.80;;
9256;SDS011;4665;51.368;6.782;2022-12-10T03:15:30;36.67;;;21.17;;
9256;SDS011;4665;51.368;6.782;2022-12-10T03:17:58;31.30;;;20.00;;
9256;SDS011;4665;51.368;6.782;2022-12-10T03:20:27;27.90;;;18.50;;
9256;SDS011;4665;51.368;6.782;2022-12-10T03:22:56;34.67;;;20.10;;
9256;SDS011;4665;51.368;6.782;2022-12-10T03:25:23;32.73;;;19.10;;
9256;SDS011;4665;51.368;6.782;2022-12-10T03:27:52;26.30;;;17.07;;
9256;SDS011;4665;51.368;6.782;2022-12-10T03:30:20;29.70;;;17.50;;
9256;SDS011;4665;51.368;6.782;2022-12-10T03:32:46;31.77;;;19.23;;
9256;SDS011;4665;51.368;6.782;2022-12-10T03:35:13;30.30;;;18.60;;
9256;SDS011;4665;51.368;6.782;2022-12-10T03:37:41;32.43;;;18.90;;
9256;SDS011;4665;51.368;6.782;2022-12-10T03:40:06;33.30;;;19.53;;
9256;SDS011;4665;51.368;6.782;2022-12-10T03:42:37;32.70;;;19.47;;
9256;SDS011;4665;51.368;6.782;2022-12-10T03:45:03;31.87;;;18.90;;
9256;SDS011;4665;51.368;6.782;2022-12-10T03:47:29;28.17;;;17.77;;
9256;SDS011;4665;51.368;6.782;2022-12-10T03:49:55;29.13;;;18.80;;
9256;SDS011;4665;51.368;6.782;2022-12-10T03:52:20;33.40;;;20.43;;
9256;SDS011;4665;51.368;6.782;2022-12-10T03:54:46;35.53;;;21.40;;
9256;SDS011;4665;51.368;6.782;2022-12-10T03:57:11;27.30;;;17.30;;
9256;SDS011;4665;51.368;6.782;2022-12-10T03:59:37;29.00;;;19.00;;
9256;SDS011;4665;51.368;6.782;2022-12-10T04:02:02;35.63;;;21.00;;
9256;SDS011;4665;51.368;6.782;2022-12-10T04:04:28;33.43;;;19.40;;
9256;SDS011;4665;51.368;6.782;2022-12-10T04:06:54;29.23;;;18.63;;
9256;SDS011;4665;51.368;6.782;2022-12-10T04:09:19;28.83;;;19.13;;
9256;SDS011;4665;51.368;6.782;2022-12-10T04:11:45;38.70;;;21.23;;
9256;SDS011;4665;51.368;6.782;2022-12-10T04:14:11;29.13;;;17.97;;
9256;SDS011;4665;51.368;6.782;2022-12-10T04:16:55;32.43;;;20.47;;
9256;SDS011;4665;51.368;6.782;2022-12-10T04:19:21;34.53;;;20.77;;
9256;SDS011;4665;51.368;6.782;2022-12-10T04:21:47;37.33;;;21.47;;
9256;SDS011;4665;51.368;6.782;2022-12-10T04:24:32;33.63;;;20.30;;
9256;SDS011;4665;51.368;6.782;2022-12-10T04:27:25;36.67;;;21.43;;
9256;SDS011;4665;51.368;6.782;2022-12-10T04:29:55;32.97;;;20.67;;
9256;SDS011;4665;51.368;6.782;2022-12-10T04:32:23;30.63;;;19.37;;
9256;SDS011;4665;51.368;6.782;2022-12-10T04:34:50;32.90;;;20.07;;
9256;SDS011;4665;51.368;6.782;2022-12-10T04:37:16;33.80;;;21.37;;
9256;SDS011;4665;51.368;6.782;2022-12-10T04:39:42;32.43;;;19.97;;
9256;SDS011;4665;51.368;6.782;2022-12-10T04:42:08;28.67;;;18.47;;
9256;SDS011;4665;51.368;6.782;2022-12-10T04:44:33;32.20;;;20.37;;
9256;SDS011;4665;51.368;6.782;2022-12-10T04:46:59;33.10;;;22.07;;
9256;SDS011;4665;51.368;6.782;2022-12-10T04:49:25;34.07;;;20.73;;
9256;SDS011;4665;51.368;6.782;2022-12-10T04:51:51;33.10;;;21.53;;
9256;SDS011;4665;51.368;6.782;2022-12-10T04:54:18;31.97;;;19.63;;
9256;SDS011;4665;51.368;6.782;2022-12-10T04:56:44;36.20;;;20.97;;
9256;SDS011;4665;51.368;6.782;2022-12-10T04:59:09;36.10;;;21.40;;
9256;SDS011;4665;51.368;6.782;2022-12-10T05:01:35;34.00;;;21.00;;
9256;SDS011;4665;51.368;6.782;2022-12-10T05:04:02;41.60;;;22.00;;
9256;SDS011;4665;51.368;6.782;2022-12-10T05:06:29;40.70;;;21.97;;
9256;SDS011;4665;51.368;6.782;2022-12-10T05:08:55;35.90;;;21.37;;
9256;SDS011;4665;51.368;6.782;2022-12-10T05:11:21;36.00;;;21.73;;
9256;SDS011;4665;51.368;6.782;2022-12-10T05:13:48;30.83;;;19.50;;
9256;SDS011;4665;51.368;6.782;2022-12-10T05:16:15;37.37;;;21.23;;
9256;SDS011;4665;51.368;6.782;2022-12-10T05:18:42;33.50;;;20.30;;
9256;SDS011;4665;51.368;6.782;2022-12-10T05:21:10;36.30;;;21.20;;
9256;SDS011;4665;51.368;6.782;2022-12-10T05:23:39;32.27;;;19.53;;
9256;SDS011;4665;51.368;6.782;2022-12-10T05:26:10;37.63;;;21.50;;
9256;SDS011;4665;51.368;6.782;2022-12-10T05:28:48;32.47;;;21.20;;
9256;SDS011;4665;51.368;6.782;2022-12-10T05:31:17;35.67;;;22.03;;
9256;SDS011;4665;51.368;6.782;2022-12-10T05:33:54;35.83;;;21.33;;
9256;SDS011;4665;51.368;6.782;2022-12-10T05:36:22;29.33;;;18.17;;
9256;SDS011;4665;51.368;6.782;2022-12-10T05:38:49;36.43;;;22.07;;
9256;SDS011;4665;51.368;6.782;2022-12-10T05:41:16;35.00;;;21.53;;
9256;SDS011;4665;51.368;6.782;2022-12-10T05:43:43;34.10;;;20.67;;
9256;SDS011;4665;51.368;6.782;2022-12-10T05:46:11;31.03;;;19.47;;
9256;SDS011;4665;51.368;6.782;2022-12-10T05:48:39;33.40;;;20.73;;
9256;SDS011;4665;51.368;6.782;2022-12-10T06:03:26;37.07;;;23.10;;
9256;SDS011;4665;51.368;6.782;2022-12-10T06:05:52;39.80;;;23.67;;
9256;SDS011;4665;51.368;6.782;2022-12-10T06:08:18;27.70;;;18.93;;
9256;SDS011;4665;51.368;6.782;2022-12-10T06:10:44;30.50;;;19.43;;
9256;SDS011;4665;51.368;6.782;2022-12-10T06:13:09;31.17;;;19.73;;
9256;SDS011;4665;51.368;6.782;2022-12-10T06:15:37;33.60;;;21.47;;
9256;SDS011;4665;51.368;6.782;2022-12-10T06:18:04;41.20;;;23.00;;
9256;SDS011;4665;51.368;6.782;2022-12-10T06:20:30;44.47;;;24.40;;
9256;SDS011;4665;51.368;6.782;2022-12-10T06:22:57;42.43;;;24.50;;
9256;SDS011;4665;51.368;6.782;2022-12-10T06:25:22;47.30;;;27.53;;
9256;SDS011;4665;51.368;6.782;2022-12-10T06:27:48;53.07;;;27.03;;
9256;SDS011;4665;51.368;6.782;2022-12-10T06:30:13;67.33;;;31.77;;
9256;SDS011;4665;51.368;6.782;2022-12-10T06:32:39;61.33;;;31.37;;
9256;SDS011;4665;51.368;6.782;2022-12-10T06:35:05;68.80;;;31.10;;
9256;SDS011;4665;51.368;6.782;2022-12-10T06:37:30;65.00;;;30.63;;
9256;SDS011;4665;51.368;6.782;2022-12-10T06:39:56;55.07;;;29.17;;
9256;SDS011;4665;51.368;6.782;2022-12-10T06:42:21;54.50;;;28.73;;
9256;SDS011;4665;51.368;6.782;2022-12-10T06:44:47;55.00;;;28.20;;
9256;SDS011;4665;51.368;6.782;2022-12-10T06:47:13;53.40;;;28.17;;
9256;SDS011;4665;51.368;6.782;2022-12-10T06:49:39;52.87;;;27.57;;
9256;SDS011;4665;51.368;6.782;2022-12-10T06:52:05;50.23;;;27.60;;
9256;SDS011;4665;51.368;6.782;2022-12-10T06:54:31;48.63;;;27.27;;
9256;SDS011;4665;51.368;6.782;2022-12-10T06:56:57;46.97;;;26.83;;
9256;SDS011;4665;51.368;6.782;2022-12-10T06:59:23;49.23;;;27.67;;
9256;SDS011;4665;51.368;6.782;2022-12-10T07:01:48;54.27;;;28.80;;
9256;SDS011;4665;51.368;6.782;2022-12-10T07:04:14;51.13;;;26.57;;
9256;SDS011;4665;51.368;6.782;2022-12-10T07:06:40;52.80;;;28.57;;
9256;SDS011;4665;51.368;6.782;2022-12-10T07:09:05;47.70;;;27.57;;
9256;SDS011;4665;51.368;6.782;2022-12-10T07:11:31;51.97;;;27.43;;
9256;SDS011;4665;51.368;6.782;2022-12-10T07:13:57;51.10;;;27.97;;
9256;SDS011;4665;51.368;6.782;2022-12-10T07:16:25;49.03;;;26.83;;
9256;SDS011;4665;51.368;6.782;2022-12-10T07:18:52;55.20;;;29.73;;
9256;SDS011;4665;51.368;6.782;2022-12-10T07:21:41;55.17;;;28.30;;
9256;SDS011;4665;51.368;6.782;2022-12-10T07:24:08;51.50;;;27.77;;
9256;SDS011;4665;51.368;6.782;2022-12-10T07:26:36;55.17;;;30.00;;
9256;SDS011;4665;51.368;6.782;2022-12-10T07:29:04;59.47;;;30.13;;
9256;SDS011;4665;51.368;6.782;2022-12-10T07:31:31;58.83;;;30.07;;
9256;SDS011;4665;51.368;6.782;2022-12-10T07:33:58;55.97;;;30.07;;
9256;SDS011;4665;51.368;6.782;2022-12-10T07:36:23;59.53;;;31.33;;
9256;SDS011;4665;51.368;6.782;2022-12-10T07:38:51;53.30;;;29.77;;
9256;SDS011;4665;51.368;6.782;2022-12-10T07:41:18;59.37;;;29.43;;
9256;SDS011;4665;51.368;6.782;2022-12-10T07:43:44;55.50;;;30.07;;
9256;SDS011;4665;51.368;6.782;2022-12-10T07:46:11;62.50;;;30.60;;
9256;SDS011;4665;51.368;6.782;2022-12-10T07:48:45;57.40;;;28.67;;
9256;SDS011;4665;51.368;6.782;2022-12-10T07:51:12;52.60;;;28.80;;
9256;SDS011;4665;51.368;6.782;2022-12-10T07:53:39;58.80;;;30.20;;
9256;SDS011;4665;51.368;6.782;2022-12-10T07:56:05;60.53;;;29.07;;
9256;SDS011;4665;51.368;6.782;2022-12-10T07:58:31;62.83;;;29.40;;
9256;SDS011;4665;51.368;6.782;2022-12-10T08:00:57;51.83;;;28.73;;
9256;SDS011;4665;51.368;6.782;2022-12-10T08:03:23;58.47;;;28.03;;
9256;SDS011;4665;51.368;6.782;2022-12-10T08:06:00;53.40;;;27.90;;
9256;SDS011;4665;51.368;6.782;2022-12-10T08:08:26;56.03;;;28.23;;
9256;SDS011;4665;51.368;6.782;2022-12-10T08:10:52;50.53;;;27.70;;
9256;SDS011;4665;51.368;6.782;2022-12-10T08:13:17;54.10;;;27.30;;
9256;SDS011;4665;51.368;6.782;2022-12-10T08:15:43;51.20;;;27.03;;
9256;SDS011;4665;51.368;6.782;2022-12-10T08:18:08;49.37;;;27.80;;
9256;SDS011;4665;51.368;6.782;2022-12-10T08:20:34;52.87;;;28.00;;
9256;SDS011;4665;51.368;6.782;2022-12-10T08:23:00;55.07;;;28.17;;
9256;SDS011;4665;51.368;6.782;2022-12-10T08:25:26;52.07;;;26.73;;
9256;SDS011;4665;51.368;6.782;2022-12-10T08:27:51;52.90;;;27.77;;
9256;SDS011;4665;51.368;6.782;2022-12-10T08:30:17;62.43;;;29.10;;
9256;SDS011;4665;51.368;6.782;2022-12-10T08:32:42;53.90;;;28.07;;
9256;SDS011;4665;51.368;6.782;2022-12-10T08:35:08;47.90;;;26.90;;
9256;SDS011;4665;51.368;6.782;2022-12-10T08:37:34;50.07;;;26.83;;
9256;SDS011;4665;51.368;6.782;2022-12-10T08:39:59;53.17;;;26.47;;
9256;SDS011;4665;51.368;6.782;2022-12-10T08:42:24;48.90;;;25.97;;
9256;SDS011;4665;51.368;6.782;2022-12-10T08:44:50;51.13;;;26.00;;
9256;SDS011;4665;51.368;6.782;2022-12-10T08:47:16;56.90;;;27.73;;
9256;SDS011;4665;51.368;6.782;2022-12-10T08:49:41;55.50;;;27.77;;
9256;SDS011;4665;51.368;6.782;2022-12-10T08:52:06;53.67;;;27.80;;
9256;SDS011;4665;51.368;6.782;2022-12-10T08:54:32;57.70;;;29.17;;
9256;SDS011;4665;51.368;6.782;2022-12-10T08:56:58;59.33;;;28.90;;
9256;SDS011;4665;51.368;6.782;2022-12-10T08:59:23;56.57;;;27.40;;
9256;SDS011;4665;51.368;6.782;2022-12-10T09:01:50;50.43;;;26.50;;
9256;SDS011;4665;51.368;6.782;2022-12-10T09:04:16;54.50;;;27.63;;
9256;SDS011;4665;51.368;6.782;2022-12-10T09:06:42;58.27;;;28.03;;
9256;SDS011;4665;51.368;6.782;2022-12-10T09:09:07;57.53;;;27.23;;
9256;SDS011;4665;51.368;6.782;2022-12-10T09:11:33;52.37;;;26.93;;
9256;SDS011;4665;51.368;6.782;2022-12-10T09:13:59;58.97;;;27.17;;
9256;SDS011;4665;51.368;6.782;2022-12-10T09:16:43;59.63;;;28.30;;
9256;SDS011;4665;51.368;6.782;2022-12-10T09:19:09;51.67;;;26.67;;
9256;SDS011;4665;51.368;6.782;2022-12-10T09:21:35;56.17;;;29.10;;
9256;SDS011;4665;51.368;6.782;2022-12-10T09:24:00;65.03;;;29.47;;
9256;SDS011;4665;51.368;6.782;2022-12-10T09:26:26;61.07;;;28.07;;
9256;SDS011;4665;51.368;6.782;2022-12-10T09:28:53;62.10;;;28.10;;
9256;SDS011;4665;51.368;6.782;2022-12-10T09:31:20;57.47;;;27.43;;
9256;SDS011;4665;51.368;6.782;2022-12-10T09:33:46;56.70;;;26.93;;
9256;SDS011;4665;51.368;6.782;2022-12-10T09:36:13;60.13;;;29.03;;
9256;SDS011;4665;51.368;6.782;2022-12-10T09:38:40;57.57;;;28.40;;
9256;SDS011;4665;51.368;6.782;2022-12-10T09:43:45;57.97;;;26.90;;
9256;SDS011;4665;51.368;6.782;2022-12-10T09:46:22;61.43;;;29.63;;
9256;SDS011;4665;51.368;6.782;2022-12-10T09:51:40;56.83;;;27.77;;
9256;SDS011;4665;51.368;6.782;2022-12-10T09:54:39;64.23;;;30.03;;
9256;SDS011;4665;51.368;6.782;2022-12-10T09:57:01;59.50;;;28.23;;
9256;SDS011;4665;51.368;6.782;2022-12-10T09:59:43;59.27;;;28.73;;
9256;SDS011;4665;51.368;6.782;2022-12-10T10:02:20;55.40;;;27.63;;
9256;SDS011;4665;51.368;6.782;2022-12-10T10:05:06;51.53;;;26.70;;
9256;SDS011;4665;51.368;6.782;2022-12-10T10:07:35;50.37;;;27.07;;
9256;SDS011;4665;51.368;6.782;2022-12-10T10:10:07;49.57;;;24.07;;
9256;SDS011;4665;51.368;6.782;2022-12-10T10:15:32;55.33;;;25.67;;
9256;SDS011;4665;51.368;6.782;2022-12-10T10:18:14;48.17;;;25.17;;
9256;SDS011;4665;51.368;6.782;2022-12-10T10:24:03;46.90;;;22.97;;
9256;SDS011;4665;51.368;6.782;2022-12-10T10:26:31;41.77;;;22.33;;
9256;SDS011;4665;51.368;6.782;2022-12-10T10:29:02;35.00;;;21.17;;
9256;SDS011;4665;51.368;6.782;2022-12-10T10:31:31;38.77;;;21.27;;
9256;SDS011;4665;51.368;6.782;2022-12-10T10:34:00;38.97;;;21.17;;
9256;SDS011;4665;51.368;6.782;2022-12-10T10:36:29;41.63;;;22.20;;
9256;SDS011;4665;51.368;6.782;2022-12-10T10:39:07;36.63;;;21.60;;
9256;SDS011;4665;51.368;6.782;2022-12-10T10:41:36;34.60;;;21.20;;
9256;SDS011;4665;51.368;6.782;2022-12-10T10:44:10;34.17;;;20.17;;
9256;SDS011;4665;51.368;6.782;2022-12-10T10:46:39;35.67;;;21.00;;
9256;SDS011;4665;51.368;6.782;2022-12-10T10:49:40;38.27;;;21.27;;
9256;SDS011;4665;51.368;6.782;2022-12-10T10:52:20;35.03;;;20.70;;
9256;SDS011;4665;51.368;6.782;2022-12-10T10:54:46;36.30;;;20.53;;
9256;SDS011;4665;51.368;6.782;2022-12-10T10:57:34;34.83;;;19.70;;
9256;SDS011;4665;51.368;6.782;2022-12-10T11:00:03;40.47;;;22.00;;
9256;SDS011;4665;51.368;6.782;2022-12-10T11:02:43;39.47;;;22.20;;
9256;SDS011;4665;51.368;6.782;2022-12-10T11:07:56;39.03;;;21.80;;
9256;SDS011;4665;51.368;6.782;2022-12-10T11:10:25;34.47;;;20.43;;
9256;SDS011;4665;51.368;6.782;2022-12-10T11:13:04;34.23;;;20.50;;
9256;SDS011;4665;51.368;6.782;2022-12-10T11:15:38;35.53;;;21.20;;
9256;SDS011;4665;51.368;6.782;2022-12-10T11:20:58;31.63;;;19.47;;
9256;SDS011;4665;51.368;6.782;2022-12-10T11:23:28;38.67;;;20.17;;
9256;SDS011;4665;51.368;6.782;2022-12-10T11:42:34;36.43;;;20.77;;
9256;SDS011;4665;51.368;6.782;2022-12-10T11:45:32;32.17;;;19.03;;
9256;SDS011;4665;51.368;6.782;2022-12-10T11:50:52;38.47;;;20.00;;
9256;SDS011;4665;51.368;6.782;2022-12-10T11:53:34;33.73;;;20.73;;
9256;SDS011;4665;51.368;6.782;2022-12-10T12:01:34;32.70;;;18.87;;
9256;SDS011;4665;51.368;6.782;2022-12-10T12:15:34;28.00;;;18.77;;
9256;SDS011;4665;51.368;6.782;2022-12-10T12:18:16;34.70;;;19.80;;
9256;SDS011;4665;51.368;6.782;2022-12-10T12:20:52;28.43;;;18.27;;
9256;SDS011;4665;51.368;6.782;2022-12-10T12:23:24;28.93;;;18.60;;
9256;SDS011;4665;51.368;6.782;2022-12-10T12:26:15;28.40;;;17.50;;
9256;SDS011;4665;51.368;6.782;2022-12-10T12:31:35;24.70;;;17.53;;
9256;SDS011;4665;51.368;6.782;2022-12-10T12:34:16;27.70;;;17.00;;
9256;SDS011;4665;51.368;6.782;2022-12-10T12:36:46;29.20;;;17.27;;
9256;SDS011;4665;51.368;6.782;2022-12-10T12:50:10;28.80;;;18.23;;
9256;SDS011;4665;51.368;6.782;2022-12-10T12:52:59;27.60;;;18.33;;
9256;SDS011;4665;51.368;6.782;2022-12-10T12:58:10;28.10;;;17.30;;
9256;SDS011;4665;51.368;6.782;2022-12-10T13:00:43;29.03;;;18.67;;
9256;SDS011;4665;51.368;6.782;2022-12-10T13:06:14;28.80;;;17.93;;
9256;SDS011;4665;51.368;6.782;2022-12-10T13:11:39;28.67;;;18.53;;
9256;SDS011;4665;51.368;6.782;2022-12-10T13:22:00;29.30;;;19.27;;
9256;SDS011;4665;51.368;6.782;2022-12-10T13:30:25;29.20;;;19.20;;
9256;SDS011;4665;51.368;6.782;2022-12-10T13:32:54;28.20;;;18.83;;
9256;SDS011;4665;51.368;6.782;2022-12-10T13:35:58;28.73;;;18.47;;
9256;SDS011;4665;51.368;6.782;2022-12-10T13:38:25;28.77;;;18.77;;
9256;SDS011;4665;51.368;6.782;2022-12-10T13:41:01;31.00;;;20.00;;
9256;SDS011;4665;51.368;6.782;2022-12-10T13:43:58;30.83;;;19.03;;
9256;SDS011;4665;51.368;6.782;2022-12-10T13:49:28;31.10;;;20.37;;
9256;SDS011;4665;51.368;6.782;2022-12-10T13:52:07;31.60;;;20.03;;
9256;SDS011;4665;51.368;6.782;2022-12-10T14:08:03;32.53;;;20.60;;
9256;SDS011;4665;51.368;6.782;2022-12-10T14:10:34;35.07;;;20.53;;
9256;SDS011;4665;51.368;6.782;2022-12-10T14:13:02;35.87;;;20.97;;
9256;SDS011;4665;51.368;6.782;2022-12-10T14:15:29;32.53;;;21.70;;
9256;SDS011;4665;51.368;6.782;2022-12-10T14:18:02;32.43;;;21.17;;
9256;SDS011;4665;51.368;6.782;2022-12-10T14:20:32;28.77;;;19.93;;
9256;SDS011;4665;51.368;6.782;2022-12-10T14:23:04;33.60;;;21.40;;
9256;SDS011;4665;51.368;6.782;2022-12-10T14:26:12;33.93;;;21.47;;
9256;SDS011;4665;51.368;6.782;2022-12-10T14:28:38;33.30;;;21.20;;
9256;SDS011;4665;51.368;6.782;2022-12-10T14:31:07;36.87;;;22.00;;
9256;SDS011;4665;51.368;6.782;2022-12-10T14:33:43;37.27;;;21.50;;
9256;SDS011;4665;51.368;6.782;2022-12-10T14:36:14;39.80;;;23.40;;
9256;SDS011;4665;51.368;6.782;2022-12-10T14:38:45;35.87;;;22.73;;
9256;SDS011;4665;51.368;6.782;2022-12-10T14:41:15;36.87;;;24.20;;
9256;SDS011;4665;51.368;6.782;2022-12-10T14:43:45;35.53;;;22.77;;
9256;SDS011;4665;51.368;6.782;2022-12-10T14:46:24;40.00;;;23.47;;
9256;SDS011;4665;51.368;6.782;2022-12-10T14:48:53;36.87;;;23.63;;
9256;SDS011;4665;51.368;6.782;2022-12-10T14:51:24;34.40;;;22.93;;
9256;SDS011;4665;51.368;6.782;2022-12-10T14:53:52;37.97;;;21.57;;
9256;SDS011;4665;51.368;6.782;2022-12-10T14:58:59;32.37;;;20.67;;
9256;SDS011;4665;51.368;6.782;2022-12-10T15:02:22;34.73;;;20.83;;
9256;SDS011;4665;51.368;6.782;2022-12-10T15:04:54;31.80;;;20.53;;
9256;SDS011;4665;51.368;6.782;2022-12-10T15:07:30;33.63;;;20.60;;
9256;SDS011;4665;51.368;6.782;2022-12-10T15:10:03;33.17;;;20.00;;
9256;SDS011;4665;51.368;6.782;2022-12-10T15:15:24;33.23;;;20.23;;
9256;SDS011;4665;51.368;6.782;2022-12-10T15:18:00;34.20;;;19.50;;
9256;SDS011;4665;51.368;6.782;2022-12-10T15:20:30;31.87;;;19.10;;
9256;SDS011;4665;51.368;6.782;2022-12-10T15:32:58;34.80;;;19.67;;
9256;SDS011;4665;51.368;6.782;2022-12-10T15:38:11;37.37;;;21.50;;
9256;SDS011;4665;51.368;6.782;2022-12-10T15:40:38;33.50;;;20.43;;
9256;SDS011;4665;51.368;6.782;2022-12-10T15:43:10;36.70;;;21.70;;
9256;SDS011;4665;51.368;6.782;2022-12-10T15:45:38;40.20;;;20.90;;
9256;SDS011;4665;51.368;6.782;2022-12-10T15:48:10;37.43;;;20.77;;
9256;SDS011;4665;51.368;6.782;2022-12-10T15:50:38;35.27;;;20.67;;
9256;SDS011;4665;51.368;6.782;2022-12-10T15:53:08;35.07;;;19.57;;
9256;SDS011;4665;51.368;6.782;2022-12-10T15:55:38;36.33;;;20.07;;
9256;SDS011;4665;51.368;6.782;2022-12-10T15:58:09;41.83;;;22.43;;
9256;SDS011;4665;51.368;6.782;2022-12-10T16:00:36;31.43;;;19.27;;
9256;SDS011;4665;51.368;6.782;2022-12-10T16:03:04;38.70;;;20.50;;
9256;SDS011;4665;51.368;6.782;2022-12-10T16:05:31;40.70;;;22.23;;
9256;SDS011;4665;51.368;6.782;2022-12-10T16:07:58;44.50;;;21.50;;
9256;SDS011;4665;51.368;6.782;2022-12-10T16:10:27;42.47;;;22.27;;
9256;SDS011;4665;51.368;6.782;2022-12-10T16:12:58;38.20;;;20.23;;
9256;SDS011;4665;51.368;6.782;2022-12-10T16:15:26;45.73;;;22.37;;
9256;SDS011;4665;51.368;6.782;2022-12-10T16:17:55;38.53;;;21.30;;
9256;SDS011;4665;51.368;6.782;2022-12-10T16:20:22;39.33;;;20.80;;
9256;SDS011;4665;51.368;6.782;2022-12-10T16:22:48;39.67;;;21.03;;
9256;SDS011;4665;51.368;6.782;2022-12-10T16:25:14;44.23;;;21.87;;
9256;SDS011;4665;51.368;6.782;2022-12-10T16:27:40;38.80;;;20.47;;
9256;SDS011;4665;51.368;6.782;2022-12-10T16:32:42;41.40;;;21.57;;
9256;SDS011;4665;51.368;6.782;2022-12-10T16:35:07;41.73;;;21.90;;
9256;SDS011;4665;51.368;6.782;2022-12-10T16:37:33;42.00;;;22.50;;
9256;SDS011;4665;51.368;6.782;2022-12-10T16:40:00;41.53;;;21.23;;
9256;SDS011;4665;51.368;6.782;2022-12-10T16:42:25;43.73;;;23.00;;
9256;SDS011;4665;51.368;6.782;2022-12-10T16:44:51;42.53;;;23.17;;
9256;SDS011;4665;51.368;6.782;2022-12-10T16:47:17;40.13;;;22.23;;
9256;SDS011;4665;51.368;6.782;2022-12-10T16:49:42;43.50;;;22.77;;
9256;SDS011;4665;51.368;6.782;2022-12-10T16:52:12;38.47;;;20.63;;
9256;SDS011;4665;51.368;6.782;2022-12-10T16:54:39;40.53;;;20.80;;
9256;SDS011;4665;51.368;6.782;2022-12-10T16:57:14;39.93;;;19.63;;
9256;SDS011;4665;51.368;6.782;2022-12-10T16:59:40;41.17;;;20.67;;
9256;SDS011;4665;51.368;6.782;2022-12-10T17:02:16;37.13;;;21.03;;
9256;SDS011;4665;51.368;6.782;2022-12-10T17:04:45;42.17;;;22.67;;
9256;SDS011;4665;51.368;6.782;2022-12-10T17:07:11;41.33;;;20.33;;
9256;SDS011;4665;51.368;6.782;2022-12-10T17:09:39;40.83;;;21.47;;
9256;SDS011;4665;51.368;6.782;2022-12-10T17:12:05;41.30;;;22.17;;
9256;SDS011;4665;51.368;6.782;2022-12-10T17:14:33;49.87;;;24.03;;
9256;SDS011;4665;51.368;6.782;2022-12-10T17:17:03;43.50;;;22.50;;
9256;SDS011;4665;51.368;6.782;2022-12-10T17:19:31;40.57;;;23.00;;
9256;SDS011;4665;51.368;6.782;2022-12-10T17:22:02;44.93;;;24.63;;
9256;SDS011;4665;51.368;6.782;2022-12-10T17:24:28;38.67;;;22.60;;
9256;SDS011;4665;51.368;6.782;2022-12-10T17:26:55;43.47;;;22.37;;
9256;SDS011;4665;51.368;6.782;2022-12-10T17:29:28;40.57;;;23.03;;
9256;SDS011;4665;51.368;6.782;2022-12-10T17:31:55;45.17;;;24.13;;
9256;SDS011;4665;51.368;6.782;2022-12-10T17:34:21;40.03;;;23.07;;